Parma, Arkansas
Current Conditions -  °F | °C
As of 5:35 PM on Saturday 22 Nov 2014 (Local Time) from KCCA Reporting Station
Moderate Fog Moderate Fog  
Wind Chill: 52°   Ceiling: 5500
Heat Index: 52°   Visibility: 0.5mi
Dew Point: 52°   Wind: 0mph
Humidity: 100%   Direction: NA
Pressure: 30.03"   Gusts: NA
Location:  35.659°N, 92.1866°W
Report Text: KCCA 222335Z AUTO 00000KT 1/2SM FG BKN055 OVC090 11/11 A3003 RMK AO2
Loading
Personal Weather Stations






























Interactive Weather Map New forecast layout! Learn more

10-Day Weather Forecast

Advertisements
Track Severe Weather on mobile